Terminal Aerodrome Forecast
Issued by NWS Sterling, VA

Current Version | Previous Version | Text Only | Print | Product List | Glossary Off
Versions: 1 2 3 4 5 6 7 8 9 10 11 12 13 14 15 16 17 18 19 20 21 22 23 24

916
FTUS41 KLWX 252058 AAA
TAFIAD
TAF AMD
KIAD 252058Z 2521/2624 05008KT 2SM -DZ OVC006
     FM260400 36007KT 3SM BR OVC008
     FM261200 34006KT P6SM OVC025
     FM262000 VRB03KT P6SM SCT025=

USA.gov is the U.S. government's official web portal to all federal, state and local government web resources and services.